Terminal Aerodrome Forecast
Issued by NWS

Home | Current Version | Previous Version | Text Only | Print | Product List | Glossary On
Versions: 1 2 3 4 5 6 7 8 9 10 11 12 13 14 15 16 17
000
FTUS44 KLIX 250520
TAFMCB
TAF
KMCB 250520Z 2506/2606 00000KT P6SM VCTS SCT040CB BKN060 OVC110
      TEMPO 2507/2510 VRB15G25KT 3SM TSRA SCT020CB BKN040
     FM251200 15007KT 6SM SHRA OVC025
     FM251300 15008KT P6SM SHRA OVC040
     FM260000 15010KT P6SM BKN080
     FM260300 15009KT P6SM BKN025=

USA.gov is the U.S. government's official web portal to all federal, state and local government web resources and services.